createdAt,value
2024-04-19T00:00:59.925Z,12.22
2024-04-19T00:01:59.843Z,12.17
2024-04-19T00:02:59.940Z,12.20
2024-04-19T00:04:00.037Z,12.16
2024-04-19T00:05:00.034Z,12.23
2024-04-19T00:06:00.053Z,12.19
2024-04-19T00:07:00.064Z,12.25
2024-04-19T00:08:00.083Z,12.26
2024-04-19T00:09:00.174Z,12.30
2024-04-19T00:10:00.320Z,12.09
2024-04-19T00:11:00.378Z,12.17
2024-04-19T00:12:00.417Z,12.15
2024-04-19T00:13:00.498Z,12.13
2024-04-19T00:14:00.560Z,12.25
2024-04-19T00:15:00.642Z,12.26
2024-04-19T00:16:00.736Z,12.30
2024-04-19T00:17:00.879Z,12.22
2024-04-19T00:18:00.959Z,12.22
2024-04-19T00:19:01.001Z,12.19
2024-04-19T00:20:01.127Z,12.22
2024-04-19T00:21:01.195Z,12.16
2024-04-19T00:22:01.299Z,12.16
2024-04-19T00:23:01.431Z,12.25
2024-04-19T00:24:01.536Z,12.22
2024-04-19T00:25:01.649Z,12.10
2024-04-19T00:26:01.731Z,12.16
2024-04-19T00:27:01.844Z,12.05
2024-04-19T00:28:01.931Z,11.95
2024-04-19T00:29:02.007Z,11.65
2024-04-19T00:30:02.096Z,11.83
2024-04-19T00:31:02.180Z,11.76
2024-04-19T00:32:02.328Z,11.90
2024-04-19T00:33:08.411Z,11.82
2024-04-19T00:34:03.547Z,11.92
2024-04-19T00:35:02.374Z,11.97
2024-04-19T00:36:02.422Z,12.00
2024-04-19T00:37:02.447Z,11.96
2024-04-19T00:38:02.462Z,12.07
2024-04-19T00:39:02.544Z,11.95
2024-04-19T00:40:02.507Z,12.00
2024-04-19T00:41:02.561Z,11.97
2024-04-19T00:42:02.588Z,12.12
2024-04-19T00:43:02.640Z,12.19
2024-04-19T00:44:02.640Z,12.05
2024-04-19T00:45:02.663Z,12.10
2024-04-19T00:46:02.695Z,12.13
2024-04-19T00:47:02.759Z,12.10
2024-04-19T00:48:02.812Z,12.07
2024-04-19T00:49:02.784Z,11.93
2024-04-19T00:50:02.834Z,11.97
2024-04-19T00:51:02.847Z,11.97
2024-04-19T00:52:02.940Z,12.02
2024-04-19T00:53:02.916Z,11.96
2024-04-19T00:54:02.924Z,11.95
2024-04-19T00:55:02.979Z,11.99
2024-04-19T00:56:03.041Z,12.03
2024-04-19T00:57:03.170Z,12.09
2024-04-19T00:58:03.231Z,12.06
2024-04-19T00:59:03.306Z,12.12
2024-04-19T01:00:03.373Z,12.12
2024-04-19T01:01:03.657Z,12.10
2024-04-19T01:02:03.613Z,12.12
2024-04-19T01:03:03.698Z,12.09
2024-04-19T01:04:03.829Z,12.03
2024-04-19T01:05:03.854Z,12.00
2024-04-19T01:06:03.984Z,11.93
2024-04-19T01:07:04.054Z,11.93
2024-04-19T01:08:04.102Z,11.88
2024-04-19T01:09:04.206Z,11.92
2024-04-19T01:10:04.261Z,11.89
2024-04-19T01:11:04.355Z,11.93
2024-04-19T01:12:04.347Z,11.86
2024-04-19T01:13:04.383Z,11.90
2024-04-19T01:14:04.586Z,11.82
2024-04-19T01:15:04.554Z,11.79
2024-04-19T01:16:04.608Z,11.72
2024-04-19T01:17:04.766Z,11.75
2024-04-19T01:18:04.923Z,11.76
2024-04-19T01:19:04.983Z,11.79
2024-04-19T01:20:04.991Z,11.86
2024-04-19T01:21:05.102Z,11.97
2024-04-19T01:22:05.228Z,12.03
2024-04-19T01:23:05.311Z,12.06
2024-04-19T01:24:05.347Z,12.02
2024-04-19T01:25:05.385Z,12.07
2024-04-19T01:26:05.457Z,12.09
2024-04-19T01:27:05.503Z,12.07
2024-04-19T01:28:05.553Z,11.96
2024-04-19T01:29:05.626Z,11.93
2024-04-19T01:30:05.676Z,11.88
2024-04-19T01:31:05.774Z,11.86
2024-04-19T01:32:05.850Z,11.66
2024-04-19T01:33:06.037Z,11.81
2024-04-19T01:34:06.096Z,11.75
2024-04-19T01:35:06.171Z,11.76
2024-04-19T01:36:06.283Z,11.76
2024-04-19T01:37:06.359Z,11.83
2024-04-19T01:38:06.473Z,11.83
2024-04-19T01:39:06.565Z,11.75
2024-04-19T01:40:06.641Z,11.83
2024-04-19T01:41:06.682Z,11.82
2024-04-19T01:42:06.749Z,11.83
2024-04-19T01:43:06.768Z,11.71
2024-04-19T01:44:06.863Z,11.71
2024-04-19T01:45:06.874Z,11.69
2024-04-19T01:46:06.922Z,11.64
2024-04-19T01:47:07.024Z,11.66
2024-04-19T01:48:07.078Z,11.65
2024-04-19T01:49:07.066Z,11.55
2024-04-19T01:50:07.161Z,11.57
2024-04-19T01:51:07.223Z,11.55
2024-04-19T01:52:07.282Z,11.45
2024-04-19T01:53:07.336Z,11.54
2024-04-19T01:54:07.399Z,11.37
2024-04-19T01:55:07.455Z,11.41
2024-04-19T01:56:07.489Z,11.41
2024-04-19T01:57:07.831Z,11.42
2024-04-19T01:58:07.673Z,11.46
2024-04-19T01:59:07.742Z,11.51
2024-04-19T02:00:07.788Z,11.51
2024-04-19T02:01:08.060Z,11.57
2024-04-19T02:02:08.023Z,11.57
2024-04-19T02:03:08.020Z,11.44
2024-04-19T02:04:08.150Z,11.37
2024-04-19T02:05:08.281Z,11.44
2024-04-19T02:06:08.294Z,11.45
2024-04-19T02:07:08.381Z,11.39
2024-04-19T02:08:08.453Z,11.41
2024-04-19T02:09:08.520Z,11.41
2024-04-19T02:10:08.644Z,11.48
2024-04-19T02:11:08.747Z,11.52
2024-04-19T02:12:09.265Z,11.46
2024-04-19T02:13:08.897Z,11.52
2024-04-19T02:14:08.973Z,11.52
2024-04-19T02:15:09.082Z,11.48
2024-04-19T02:16:09.196Z,11.45
2024-04-19T02:17:09.299Z,11.48
2024-04-19T02:18:09.352Z,11.52
2024-04-19T02:19:09.467Z,11.48
2024-04-19T02:20:09.558Z,11.46
2024-04-19T02:21:09.684Z,11.50
2024-04-19T02:22:09.790Z,11.54
2024-04-19T02:23:09.881Z,11.52
2024-04-19T02:24:10.028Z,11.50
2024-04-19T02:25:10.060Z,11.48
2024-04-19T02:26:10.119Z,11.52
2024-04-19T02:27:10.220Z,11.48
2024-04-19T02:28:10.300Z,11.45
2024-04-19T02:29:10.338Z,11.54
2024-04-19T02:30:10.411Z,11.58
2024-04-19T02:31:10.477Z,11.59
2024-04-19T02:32:10.524Z,11.46
2024-04-19T02:33:10.606Z,11.51
2024-04-19T02:34:10.648Z,11.57
2024-04-19T02:35:10.680Z,11.59
2024-04-19T02:36:10.753Z,11.65
2024-04-19T02:37:10.865Z,11.68
2024-04-19T02:38:10.972Z,11.72
2024-04-19T02:39:11.090Z,11.78
2024-04-19T02:40:11.159Z,11.76
2024-04-19T02:41:11.303Z,11.73
2024-04-19T02:42:11.432Z,11.68
2024-04-19T02:43:11.418Z,11.75
2024-04-19T02:44:11.497Z,11.66
2024-04-19T02:45:11.795Z,11.62
2024-04-19T02:46:11.809Z,11.62
2024-04-19T02:47:11.782Z,11.46
2024-04-19T02:48:11.873Z,11.37
2024-04-19T02:49:11.914Z,11.30
2024-04-19T02:50:11.939Z,11.31
2024-04-19T02:51:12.080Z,11.31
2024-04-19T02:52:12.130Z,11.35
2024-04-19T02:53:12.177Z,11.27
2024-04-19T02:54:12.284Z,11.34
2024-04-19T02:55:12.355Z,11.18
2024-04-19T02:56:12.474Z,11.12
2024-04-19T02:57:12.576Z,11.18
2024-04-19T02:58:12.588Z,11.18
2024-04-19T02:59:12.650Z,11.14
2024-04-19T03:00:12.746Z,11.20
2024-04-19T03:01:12.850Z,11.18
2024-04-19T03:02:12.823Z,11.31
2024-04-19T03:03:13.072Z,11.38
2024-04-19T03:04:13.060Z,11.35
2024-04-19T03:05:13.098Z,11.42
2024-04-19T03:06:13.233Z,11.24
2024-04-19T03:07:13.302Z,11.34
2024-04-19T03:08:13.343Z,11.20
2024-04-19T03:09:13.541Z,11.18
2024-04-19T03:10:13.502Z,11.18
2024-04-19T03:11:13.624Z,11.07
2024-04-19T03:12:13.717Z,11.12
2024-04-19T03:13:13.712Z,11.14
2024-04-19T03:14:13.837Z,11.10
2024-04-19T03:15:13.938Z,11.21
2024-04-19T03:16:13.950Z,11.21
2024-04-19T03:17:14.076Z,11.15
2024-04-19T03:18:14.100Z,11.21
2024-04-19T03:19:14.119Z,11.12
2024-04-19T03:20:14.165Z,11.17
2024-04-19T03:21:14.265Z,11.01
2024-04-19T03:22:14.359Z,11.17
2024-04-19T03:23:14.331Z,11.06
2024-04-19T03:24:14.421Z,11.00
2024-04-19T03:25:14.459Z,10.94
2024-04-19T03:26:14.564Z,10.91
2024-04-19T03:27:14.653Z,10.96
2024-04-19T03:28:14.743Z,11.00
2024-04-19T03:29:14.811Z,11.01
2024-04-19T03:30:14.914Z,11.03
2024-04-19T03:31:14.962Z,11.01
2024-04-19T03:32:15.060Z,11.01
2024-04-19T03:33:15.196Z,11.04
2024-04-19T03:34:15.185Z,11.03
2024-04-19T03:35:15.190Z,11.08
2024-04-19T03:36:15.299Z,11.12
2024-04-19T03:37:15.371Z,11.20
2024-04-19T03:38:15.423Z,11.22
2024-04-19T03:39:15.494Z,11.12
2024-04-19T03:40:15.534Z,11.07
2024-04-19T03:41:15.638Z,11.17
2024-04-19T03:42:15.784Z,11.14
2024-04-19T03:43:15.889Z,11.08
2024-04-19T03:44:15.926Z,11.10
2024-04-19T03:45:16.053Z,11.18
2024-04-19T03:46:16.135Z,11.21
2024-04-19T03:47:16.309Z,11.20
2024-04-19T03:48:18.367Z,11.24
2024-04-19T03:49:16.304Z,11.32
2024-04-19T03:50:16.359Z,11.24
2024-04-19T03:51:16.457Z,11.24
2024-04-19T03:52:16.472Z,11.20
2024-04-19T03:53:16.556Z,11.32
2024-04-19T03:54:16.699Z,11.38
2024-04-19T03:55:16.613Z,11.45
2024-04-19T03:56:16.664Z,11.46
2024-04-19T03:57:16.763Z,11.41
2024-04-19T03:58:16.799Z,11.42
2024-04-19T03:59:16.829Z,11.45
2024-04-19T04:00:16.953Z,11.44
2024-04-19T04:01:17.030Z,11.45
2024-04-19T04:02:17.003Z,11.41
2024-04-19T04:03:17.137Z,11.41
2024-04-19T04:04:17.077Z,11.37
2024-04-19T04:05:17.126Z,11.22
2024-04-19T04:06:17.232Z,11.27
2024-04-19T04:07:17.270Z,11.21
2024-04-19T04:08:17.269Z,11.28
2024-04-19T04:09:17.346Z,11.30
2024-04-19T04:10:17.399Z,11.24
2024-04-19T04:11:17.440Z,11.22
2024-04-19T04:12:17.506Z,11.24
2024-04-19T04:13:17.545Z,11.21
2024-04-19T04:14:17.595Z,11.21
2024-04-19T04:15:17.652Z,11.24
2024-04-19T04:16:17.675Z,11.28
2024-04-19T04:17:17.757Z,11.34
2024-04-19T04:18:17.936Z,11.34
2024-04-19T04:19:20.236Z,11.27
2024-04-19T04:20:17.852Z,11.27
2024-04-19T04:21:17.969Z,11.28
2024-04-19T04:22:17.981Z,11.25
2024-04-19T04:23:18.064Z,11.27
2024-04-19T04:24:18.058Z,11.22
2024-04-19T04:25:18.130Z,11.20
2024-04-19T04:26:18.238Z,11.17
2024-04-19T04:27:18.243Z,11.17
2024-04-19T04:28:18.212Z,11.15
2024-04-19T04:29:18.253Z,11.12
2024-04-19T04:30:18.357Z,11.14
2024-04-19T04:31:18.329Z,11.10
2024-04-19T04:32:18.418Z,11.17
2024-04-19T04:33:18.485Z,11.20
2024-04-19T04:34:18.512Z,11.12
2024-04-19T04:35:18.518Z,11.15
2024-04-19T04:36:18.602Z,11.14
2024-04-19T04:37:18.604Z,11.08
2024-04-19T04:38:18.636Z,11.14
2024-04-19T04:39:18.766Z,11.17
2024-04-19T04:40:18.710Z,11.22
2024-04-19T04:41:18.762Z,11.22
2024-04-19T04:42:18.905Z,11.28
2024-04-19T04:43:18.879Z,11.20
2024-04-19T04:44:18.884Z,11.20
2024-04-19T04:45:18.978Z,11.20
2024-04-19T04:46:18.957Z,11.20
2024-04-19T04:47:19.073Z,11.22
2024-04-19T04:48:19.176Z,11.22
2024-04-19T04:49:19.112Z,11.14
2024-04-19T04:50:19.136Z,11.21
2024-04-19T04:51:19.228Z,11.28
2024-04-19T04:52:19.239Z,11.24
2024-04-19T04:53:19.275Z,11.34
2024-04-19T04:54:19.346Z,11.31
2024-04-19T04:55:19.366Z,11.27
2024-04-19T04:56:19.415Z,11.34
2024-04-19T04:57:19.510Z,11.34
2024-04-19T04:58:19.500Z,11.34
2024-04-19T04:59:19.562Z,11.41
2024-04-19T05:00:19.579Z,11.38
2024-04-19T05:02:47.253Z,11.42
2024-04-19T05:03:24.897Z,11.46
2024-04-19T05:04:24.932Z,11.44
2024-04-19T05:05:24.954Z,11.46
2024-04-19T05:06:25.117Z,11.41
2024-04-19T05:07:25.098Z,11.42
2024-04-19T05:08:25.125Z,11.41
2024-04-19T05:09:25.245Z,11.41
2024-04-19T05:10:25.222Z,11.39
2024-04-19T05:11:25.313Z,11.41
2024-04-19T05:12:32.837Z,11.42
2024-04-19T05:13:32.814Z,11.44
2024-04-19T05:14:32.807Z,11.50
2024-04-19T05:15:32.845Z,11.48
2024-04-19T05:16:32.838Z,11.54
2024-04-19T05:17:32.863Z,11.57
2024-04-19T05:18:32.955Z,11.58
2024-04-19T05:19:32.808Z,11.59
2024-04-19T05:20:32.824Z,11.62
2024-04-19T05:21:32.896Z,11.64
2024-04-19T05:22:32.827Z,11.62
2024-04-19T05:23:32.846Z,11.61
2024-04-19T05:24:32.807Z,11.61
2024-04-19T05:25:32.814Z,11.59
2024-04-19T05:26:33.317Z,11.71
2024-04-19T05:27:32.796Z,11.68
2024-04-19T05:28:32.771Z,11.71
2024-04-19T05:29:32.846Z,11.82
2024-04-19T05:30:32.858Z,11.71
2024-04-19T05:31:32.742Z,11.71
2024-04-19T05:32:32.829Z,11.76
2024-04-19T05:33:32.804Z,11.82
2024-04-19T05:34:35.559Z,11.83
2024-04-19T05:35:32.718Z,11.76
2024-04-19T05:36:32.810Z,11.71
2024-04-19T05:37:32.660Z,11.76
2024-04-19T05:38:32.949Z,11.81
2024-04-19T05:39:32.703Z,11.75
2024-04-19T05:40:32.653Z,11.73
2024-04-19T05:41:32.650Z,11.73
2024-04-19T05:42:34.860Z,11.76
2024-04-19T05:43:32.923Z,11.79
2024-04-19T05:44:32.902Z,11.76
2024-04-19T05:45:32.829Z,11.85
2024-04-19T05:48:02.123Z,11.68
2024-04-19T05:48:38.987Z,11.76
2024-04-19T05:49:39.012Z,11.73
2024-04-19T05:50:38.998Z,11.79
2024-04-19T05:51:39.103Z,11.88
2024-04-19T05:52:39.048Z,11.86
2024-04-19T05:53:39.467Z,11.89
2024-04-19T05:54:39.232Z,11.90
2024-04-19T05:55:39.224Z,11.95
2024-04-19T05:56:39.276Z,11.96
2024-04-19T05:57:39.374Z,11.90
2024-04-19T05:58:39.498Z,11.90
2024-04-19T05:59:39.454Z,11.97
2024-04-19T06:00:39.732Z,11.92
2024-04-19T06:01:40.833Z,11.92
2024-04-19T06:02:39.539Z,11.90
2024-04-19T06:03:39.614Z,11.92
2024-04-19T06:04:39.439Z,11.95
2024-04-19T06:05:39.451Z,12.00
2024-04-19T06:06:39.466Z,12.02
2024-04-19T06:07:39.410Z,12.07
2024-04-19T06:08:39.473Z,12.09
2024-04-19T06:09:39.431Z,12.07
2024-04-19T06:10:39.366Z,12.09
2024-04-19T06:11:39.367Z,12.05
2024-04-19T06:12:39.349Z,12.06
2024-04-19T06:13:39.452Z,12.12
2024-04-19T06:14:39.350Z,12.13
2024-04-19T06:15:39.466Z,12.13
2024-04-19T06:16:39.351Z,12.23
2024-04-19T06:17:39.391Z,12.22
2024-04-19T06:18:39.617Z,12.27
2024-04-19T06:19:39.275Z,12.29
2024-04-19T06:20:39.287Z,12.32
2024-04-19T06:21:39.345Z,12.33
2024-04-19T06:22:39.297Z,12.33
2024-04-19T06:23:39.473Z,12.46
2024-04-19T06:24:39.377Z,12.44
2024-04-19T06:25:39.330Z,12.47
2024-04-19T06:26:39.328Z,12.51
2024-04-19T06:27:39.484Z,12.51
2024-04-19T06:28:39.442Z,12.37
2024-04-19T06:29:39.345Z,12.44
2024-04-19T06:30:39.456Z,12.44
2024-04-19T06:31:39.526Z,12.51
2024-04-19T06:32:39.607Z,12.61
2024-04-19T06:33:40.032Z,12.68
2024-04-19T06:34:39.552Z,12.71
2024-04-19T06:35:39.665Z,12.73
2024-04-19T06:36:39.650Z,12.76
2024-04-19T06:37:39.570Z,12.78
2024-04-19T06:38:43.056Z,12.84
2024-04-19T06:39:47.133Z,12.91
2024-04-19T06:40:40.563Z,12.97
2024-04-19T06:41:39.498Z,13.02
2024-04-19T06:42:39.519Z,13.04
2024-04-19T06:43:39.463Z,12.99
2024-04-19T06:44:39.390Z,13.11
2024-04-19T06:45:39.404Z,12.87
2024-04-19T06:46:39.330Z,12.88
2024-04-19T06:47:39.463Z,12.86
2024-04-19T06:48:39.436Z,12.84
2024-04-19T06:49:39.557Z,12.87
2024-04-19T06:50:39.413Z,12.94
2024-04-19T06:51:41.936Z,12.91
2024-04-19T06:52:39.417Z,12.90
2024-04-19T06:53:39.449Z,12.95
2024-04-19T06:54:39.361Z,12.88
2024-04-19T06:55:39.293Z,13.01
2024-04-19T06:56:39.280Z,13.05
2024-04-19T06:57:39.307Z,13.14
2024-04-19T06:58:39.208Z,12.98
2024-04-19T06:59:39.246Z,13.01
2024-04-19T07:00:47.901Z,13.05
2024-04-19T07:01:40.208Z,13.05
2024-04-19T07:02:39.254Z,13.12
2024-04-19T07:03:39.743Z,13.18
2024-04-19T07:04:39.150Z,13.18
2024-04-19T07:05:40.086Z,13.18
2024-04-19T07:06:42.070Z,13.17
2024-04-19T07:07:39.647Z,13.32
2024-04-19T07:08:39.563Z,13.42
2024-04-19T07:09:39.137Z,13.49
2024-04-19T07:10:38.892Z,13.55
2024-04-19T07:11:38.896Z,13.56
2024-04-19T07:12:38.995Z,13.61
2024-04-19T07:13:38.798Z,13.72
2024-04-19T07:14:39.007Z,13.76
2024-04-19T07:15:38.801Z,13.83
2024-04-19T07:16:39.206Z,13.92
2024-04-19T07:17:39.005Z,13.83
2024-04-19T07:18:38.783Z,13.80
2024-04-19T07:19:38.846Z,13.80
2024-04-19T07:20:38.881Z,13.58
2024-04-19T07:21:38.845Z,13.63
2024-04-19T07:22:38.808Z,13.45
2024-04-19T07:23:38.818Z,13.39
2024-04-19T07:24:39.002Z,13.37
2024-04-19T07:25:38.823Z,13.29
2024-04-19T07:26:38.899Z,13.23
2024-04-19T07:27:45.315Z,13.39
2024-04-19T07:28:39.967Z,13.48
2024-04-19T07:29:40.459Z,13.58
2024-04-19T07:30:39.136Z,13.63
2024-04-19T07:31:38.797Z,13.59
2024-04-19T07:32:38.865Z,13.69
2024-04-19T07:33:44.654Z,13.80
2024-04-19T07:34:45.913Z,13.84
2024-04-19T07:35:39.672Z,13.90
2024-04-19T07:36:43.976Z,13.92
2024-04-19T07:37:45.038Z,13.73
2024-04-19T07:38:39.544Z,13.86
2024-04-19T07:39:39.011Z,13.89
2024-04-19T07:40:38.544Z,14.00
2024-04-19T07:41:38.446Z,14.04
2024-04-19T07:42:38.460Z,14.04
2024-04-19T07:43:45.806Z,14.14
2024-04-19T07:44:39.506Z,14.16
2024-04-19T07:45:38.468Z,14.14
2024-04-19T07:46:39.256Z,14.28
2024-04-19T07:47:38.312Z,14.37
2024-04-19T07:48:38.349Z,14.33
2024-04-19T07:49:38.493Z,14.45
2024-04-19T07:50:38.151Z,14.34
2024-04-19T07:51:38.131Z,14.40
2024-04-19T07:52:39.031Z,14.51
2024-04-19T07:53:38.000Z,14.57
2024-04-19T07:54:38.049Z,14.61
2024-04-19T07:55:37.922Z,14.67
2024-04-19T07:56:37.895Z,14.68
2024-04-19T07:57:37.982Z,14.81
2024-04-19T07:58:38.331Z,14.92
2024-04-19T07:59:38.013Z,14.95
2024-04-19T08:00:37.731Z,14.92
2024-04-19T08:01:37.621Z,15.02
2024-04-19T08:02:37.585Z,15.09
2024-04-19T08:03:37.722Z,15.28
2024-04-19T08:04:38.041Z,15.38
2024-04-19T08:05:37.623Z,15.40
2024-04-19T08:06:37.702Z,15.43
2024-04-19T08:07:40.273Z,15.30
2024-04-19T08:08:37.538Z,15.42
2024-04-19T08:09:38.227Z,15.49
2024-04-19T08:10:37.418Z,15.42
2024-04-19T08:11:37.428Z,15.56
2024-04-19T08:12:37.378Z,15.51
2024-04-19T08:13:37.261Z,15.54
2024-04-19T08:14:37.228Z,15.53
2024-04-19T08:15:38.122Z,15.18
2024-04-19T08:16:37.189Z,15.30
2024-04-19T08:17:37.102Z,15.35
2024-04-19T08:18:37.072Z,15.25
2024-04-19T08:19:37.138Z,15.22
2024-04-19T08:20:36.977Z,15.26
2024-04-19T08:21:36.944Z,15.25
2024-04-19T08:22:36.882Z,15.21
2024-04-19T08:23:36.849Z,15.26
2024-04-19T08:24:36.806Z,15.23
2024-04-19T08:25:37.002Z,15.28
2024-04-19T08:26:36.737Z,15.21
2024-04-19T08:27:36.723Z,15.08
2024-04-19T08:28:36.609Z,15.12
2024-04-19T08:29:36.736Z,15.23
2024-04-19T08:30:36.525Z,15.22
2024-04-19T08:31:36.435Z,15.32
2024-04-19T08:32:36.475Z,15.43
2024-04-19T08:33:36.306Z,15.53
2024-04-19T08:34:36.252Z,15.63
2024-04-19T08:35:36.518Z,15.60
2024-04-19T08:36:36.153Z,15.71
2024-04-19T08:37:36.382Z,15.79
2024-04-19T08:38:35.995Z,15.74
2024-04-19T08:39:35.984Z,15.73
2024-04-19T08:40:37.811Z,15.70
2024-04-19T08:41:35.839Z,15.69
2024-04-19T08:42:35.795Z,15.53
2024-04-19T08:43:35.705Z,15.59
2024-04-19T08:44:35.682Z,15.54
2024-04-19T08:45:36.064Z,15.67
2024-04-19T08:46:35.552Z,15.53
2024-04-19T08:47:35.568Z,15.46
2024-04-19T08:48:35.461Z,15.61
2024-04-19T08:49:35.385Z,15.47
2024-04-19T08:50:35.511Z,15.60
2024-04-19T08:51:50.378Z,15.73
2024-04-19T08:52:58.380Z,15.70
2024-04-19T08:53:36.166Z,15.83
2024-04-19T08:54:35.043Z,15.76
2024-04-19T08:55:35.092Z,15.79
2024-04-19T08:56:34.884Z,15.91
2024-04-19T08:57:34.905Z,16.03
2024-04-19T08:58:34.788Z,16.01
2024-04-19T08:59:34.686Z,16.01
2024-04-19T09:00:34.697Z,16.07
2024-04-19T09:01:34.568Z,16.14
2024-04-19T09:02:34.513Z,16.25
2024-04-19T09:03:34.495Z,16.28
2024-04-19T09:04:34.474Z,16.36
2024-04-19T09:05:34.328Z,16.42
2024-04-19T09:06:34.281Z,16.42
2024-04-19T09:07:34.202Z,16.50
2024-04-19T09:08:34.110Z,16.51
2024-04-19T09:09:34.052Z,16.61
2024-04-19T09:10:33.959Z,16.64
2024-04-19T09:11:33.947Z,16.72
2024-04-19T09:12:34.188Z,16.68
2024-04-19T09:13:33.729Z,16.66
2024-04-19T09:14:33.678Z,16.69
2024-04-19T09:15:33.647Z,16.66
2024-04-19T09:16:33.552Z,16.50
2024-04-19T09:17:33.692Z,16.50
2024-04-19T09:18:33.423Z,16.52
2024-04-19T09:19:33.303Z,16.38
2024-04-19T09:20:33.271Z,15.96
2024-04-19T09:21:33.524Z,15.90
2024-04-19T09:22:33.127Z,16.04
2024-04-19T09:23:33.032Z,16.04
2024-04-19T09:24:33.058Z,16.14
2024-04-19T09:25:32.890Z,16.18
2024-04-19T09:26:32.864Z,15.97
2024-04-19T09:27:32.816Z,16.08
2024-04-19T09:28:32.775Z,15.86
2024-04-19T09:29:32.827Z,16.08
2024-04-19T09:30:32.681Z,16.07
2024-04-19T09:31:33.071Z,16.21
2024-04-19T09:33:33.749Z,16.18
2024-04-19T09:34:32.498Z,16.22
2024-04-19T09:35:32.482Z,16.28
2024-04-19T09:36:32.401Z,16.44
2024-04-19T09:37:32.313Z,16.52
2024-04-19T09:38:32.267Z,16.62
2024-04-19T09:39:32.257Z,16.76
2024-04-19T09:40:32.124Z,16.47
2024-04-19T09:41:32.606Z,16.58
2024-04-19T09:42:32.202Z,16.64
2024-04-19T09:43:32.095Z,16.36
2024-04-19T09:44:33.128Z,16.71
2024-04-19T09:45:32.102Z,16.89
2024-04-19T09:46:32.021Z,16.92
2024-04-19T09:47:31.954Z,17.05
2024-04-19T09:48:31.965Z,17.07
2024-04-19T09:49:31.780Z,17.22
2024-04-19T09:50:31.707Z,17.17
2024-04-19T09:51:32.135Z,16.82
2024-04-19T09:52:31.607Z,16.95
2024-04-19T09:53:31.557Z,17.07
2024-04-19T09:54:31.526Z,17.03
2024-04-19T09:55:31.485Z,17.15
2024-04-19T09:56:31.535Z,17.16
2024-04-19T09:57:31.420Z,17.17
2024-04-19T09:58:31.332Z,17.12
2024-04-19T09:59:31.315Z,17.25
2024-04-19T10:00:31.599Z,17.29
2024-04-19T10:01:31.642Z,17.30
2024-04-19T10:02:36.432Z,17.37
2024-04-19T10:03:32.306Z,17.41
2024-04-19T10:04:31.107Z,17.54
2024-04-19T10:05:30.924Z,17.54
2024-04-19T10:06:32.017Z,17.64
2024-04-19T10:07:30.743Z,17.57
2024-04-19T10:08:30.676Z,17.40
2024-04-19T10:09:30.626Z,17.48
2024-04-19T10:10:30.498Z,17.51
2024-04-19T10:11:30.557Z,17.50
2024-04-19T10:12:30.408Z,17.53
2024-04-19T10:13:30.283Z,17.51
2024-04-19T10:14:30.224Z,17.37
2024-04-19T10:15:30.115Z,17.41
2024-04-19T10:16:30.327Z,17.61
2024-04-19T10:17:30.059Z,17.73
2024-04-19T10:18:29.902Z,17.81
2024-04-19T10:19:34.387Z,17.70
2024-04-19T10:20:30.658Z,17.09
2024-04-19T10:21:30.138Z,17.44
2024-04-19T10:22:29.452Z,17.56
2024-04-19T10:23:29.458Z,17.66
2024-04-19T10:24:29.341Z,17.51
2024-04-19T10:25:29.157Z,17.53
2024-04-19T10:26:29.061Z,17.57
2024-04-19T10:27:29.047Z,17.61
2024-04-19T10:28:28.842Z,17.80
2024-04-19T10:29:28.743Z,17.88
2024-04-19T10:30:34.738Z,17.82
2024-04-19T10:31:29.553Z,17.84
2024-04-19T10:32:28.506Z,17.76
2024-04-19T10:33:28.310Z,17.98
2024-04-19T10:34:28.205Z,18.08
2024-04-19T10:35:28.111Z,18.12
2024-04-19T10:36:28.142Z,18.19
2024-04-19T10:37:27.849Z,18.29
2024-04-19T10:38:27.729Z,18.51
2024-04-19T10:39:27.715Z,18.69
2024-04-19T10:40:27.514Z,18.72
2024-04-19T10:41:27.397Z,18.73
2024-04-19T10:42:27.546Z,18.72
2024-04-19T10:43:27.138Z,18.90
2024-04-19T10:44:27.063Z,18.93
2024-04-19T10:45:26.989Z,18.97
2024-04-19T10:46:26.884Z,19.07
2024-04-19T10:47:27.114Z,18.96
2024-04-19T10:48:28.363Z,18.79
2024-04-19T10:49:26.626Z,18.84
2024-04-19T10:50:26.468Z,19.13
2024-04-19T10:51:26.374Z,19.04
2024-04-19T10:52:26.560Z,19.28
2024-04-19T10:53:26.195Z,19.38
2024-04-19T10:54:26.138Z,19.17
2024-04-19T10:55:26.010Z,19.24
2024-04-19T10:56:25.987Z,19.23
2024-04-19T10:57:25.949Z,19.23
2024-04-19T10:58:25.775Z,19.23
2024-04-19T10:59:25.752Z,19.11
2024-04-19T11:00:25.696Z,19.00
2024-04-19T11:01:25.760Z,19.13
2024-04-19T11:02:26.144Z,18.89
2024-04-19T11:03:25.655Z,18.92
2024-04-19T11:04:25.731Z,18.77
2024-04-19T11:05:25.572Z,18.80
2024-04-19T11:06:25.557Z,18.51
2024-04-19T11:07:25.547Z,18.74
2024-04-19T11:08:25.399Z,18.82
2024-04-19T11:09:25.456Z,18.80
2024-04-19T11:10:25.388Z,18.67
2024-04-19T11:11:25.475Z,18.62
2024-04-19T11:12:25.307Z,18.59
2024-04-19T11:13:25.256Z,18.63
2024-04-19T11:14:25.220Z,18.66
2024-04-19T11:15:25.179Z,18.76
2024-04-19T11:16:25.222Z,18.69
2024-04-19T11:17:25.180Z,18.80
2024-04-19T11:18:25.190Z,18.79
2024-04-19T11:19:25.258Z,18.92
2024-04-19T11:20:24.957Z,18.93
2024-04-19T11:21:24.985Z,19.04
2024-04-19T11:22:25.061Z,18.97
2024-04-19T11:23:24.827Z,19.04
2024-04-19T11:24:24.843Z,19.14
2024-04-19T11:25:24.714Z,19.30
2024-04-19T11:26:24.619Z,19.50
2024-04-19T11:27:26.583Z,19.48
2024-04-19T11:28:24.500Z,19.34
2024-04-19T11:29:24.474Z,19.38
2024-04-19T11:30:24.431Z,19.39
2024-04-19T11:31:24.384Z,19.44
2024-04-19T11:32:24.682Z,19.18
2024-04-19T11:33:24.238Z,19.09
2024-04-19T11:34:24.187Z,19.28
2024-04-19T11:35:24.124Z,19.18
2024-04-19T11:36:24.085Z,19.23
2024-04-19T11:37:24.044Z,19.33
2024-04-19T11:38:23.898Z,19.33
2024-04-19T11:39:23.776Z,19.02
2024-04-19T11:40:23.669Z,19.11
2024-04-19T11:41:23.591Z,19.18
2024-04-19T11:42:23.647Z,19.14
2024-04-19T11:43:23.525Z,19.20
2024-04-19T11:44:23.447Z,18.83
2024-04-19T11:45:23.415Z,18.87
2024-04-19T11:46:23.364Z,18.86
2024-04-19T11:47:23.492Z,18.92
2024-04-19T11:48:23.449Z,18.82
2024-04-19T11:49:23.289Z,18.89
2024-04-19T11:50:23.168Z,18.94
2024-04-19T11:51:23.165Z,19.00
2024-04-19T11:52:23.056Z,18.94
2024-04-19T11:53:23.028Z,19.03
2024-04-19T11:54:23.026Z,18.66
2024-04-19T11:55:22.909Z,18.67
2024-04-19T11:56:22.802Z,18.90
2024-04-19T11:57:22.781Z,19.00
2024-04-19T11:58:22.661Z,19.14
2024-04-19T11:59:22.611Z,19.24
2024-04-19T12:00:22.574Z,19.27
2024-04-19T12:01:22.568Z,18.93
2024-04-19T12:02:22.415Z,19.11
2024-04-19T12:03:22.420Z,19.18
2024-04-19T12:04:22.517Z,19.14
2024-04-19T12:05:22.392Z,19.16
2024-04-19T12:06:22.277Z,19.11
2024-04-19T12:07:22.158Z,19.13
2024-04-19T12:08:22.107Z,19.24
2024-04-19T12:09:22.099Z,19.31
2024-04-19T12:10:23.912Z,19.30
2024-04-19T12:11:21.976Z,19.34
2024-04-19T12:13:08.913Z,19.42
2024-04-19T12:15:12.994Z,19.30
2024-04-19T12:16:04.574Z,19.24
2024-04-19T12:17:25.953Z,19.30
2024-04-19T12:18:22.364Z,19.33
2024-04-19T12:19:21.272Z,19.28
2024-04-19T12:20:29.822Z,19.28
2024-04-19T12:21:22.562Z,19.20
2024-04-19T12:22:22.202Z,19.16
2024-04-19T12:23:22.132Z,19.13
2024-04-19T12:24:20.864Z,18.99
2024-04-19T12:25:20.951Z,19.02
2024-04-19T12:26:21.943Z,18.77
2024-04-19T12:27:20.452Z,18.93
2024-04-19T12:28:20.266Z,18.90
2024-04-19T12:29:20.152Z,18.96
2024-04-19T12:30:19.954Z,18.64
2024-04-19T12:31:19.814Z,18.63
2024-04-19T12:32:19.717Z,18.72
2024-04-19T12:33:19.668Z,18.67
2024-04-19T12:34:19.524Z,18.72
2024-04-19T12:35:19.347Z,18.84
2024-04-19T12:36:19.295Z,18.73
2024-04-19T12:37:19.145Z,18.94
2024-04-19T12:38:19.060Z,18.86
2024-04-19T12:39:18.963Z,18.89
2024-04-19T12:40:18.776Z,18.56
2024-04-19T12:41:18.794Z,18.72
2024-04-19T12:42:18.725Z,18.58
2024-04-19T12:43:18.648Z,18.74
2024-04-19T12:44:18.518Z,18.39
2024-04-19T12:45:18.449Z,18.60
2024-04-19T12:46:18.377Z,18.59
2024-04-19T12:47:18.293Z,18.72
2024-04-19T12:48:18.455Z,18.67
2024-04-19T12:49:18.132Z,18.84
2024-04-19T12:50:18.026Z,18.80
2024-04-19T12:51:17.943Z,18.86
2024-04-19T12:52:17.896Z,18.89
2024-04-19T12:53:17.798Z,18.77
2024-04-19T12:54:17.691Z,18.69
2024-04-19T12:55:17.564Z,18.63
2024-04-19T12:56:17.510Z,18.76
2024-04-19T12:57:17.360Z,18.63
2024-04-19T12:58:17.269Z,18.62